Terminal Aerodrome Forecast
Issued by NWS

Home | Current Version | Previous Version | Text Only | Print | Product List | Glossary Off
Versions: 1 2 3 4 5 6 7 8 9 10 11 12 13 14 15

000
FTUS43 KGRB 130500
TAFATW
TAF
KATW 130533Z 1306/1406 27005KT P6SM SCT100
     FM131000 27009KT P6SM SCT012
     FM131600 28014G20KT P6SM SCT040
     FM140000 27007KT P6SM SCT040=

USA.gov is the U.S. government's official web portal to all federal, state and local government web resources and services.